sensor_id;sensor_type;location;lat;lon;timestamp;temperature;humidity
13808;DHT22;40769;51.512;5.494;2022-09-01T00:00:22;19.80;93.30
13808;DHT22;40769;51.512;5.494;2022-09-01T00:02:54;19.70;93.40
13808;DHT22;40769;51.512;5.494;2022-09-01T00:05:20;19.70;93.40
13808;DHT22;40769;51.512;5.494;2022-09-01T00:07:45;19.60;93.60
13808;DHT22;40769;51.512;5.494;2022-09-01T00:10:11;19.60;93.80
13808;DHT22;40769;51.512;5.494;2022-09-01T00:12:37;19.50;94.00
13808;DHT22;40769;51.512;5.494;2022-09-01T00:15:04;19.50;94.30
13808;DHT22;40769;51.512;5.494;2022-09-01T00:17:30;19.40;94.30
13808;DHT22;40769;51.512;5.494;2022-09-01T00:19:56;19.40;94.10
13808;DHT22;40769;51.512;5.494;2022-09-01T00:22:21;19.40;94.30
13808;DHT22;40769;51.512;5.494;2022-09-01T00:24:47;19.30;94.60
13808;DHT22;40769;51.512;5.494;2022-09-01T00:27:13;19.30;94.40
13808;DHT22;40769;51.512;5.494;2022-09-01T00:29:39;19.20;94.70
13808;DHT22;40769;51.512;5.494;2022-09-01T00:32:04;19.20;94.80
13808;DHT22;40769;51.512;5.494;2022-09-01T00:34:30;19.20;95.00
13808;DHT22;40769;51.512;5.494;2022-09-01T00:36:56;19.40;95.20
13808;DHT22;40769;51.512;5.494;2022-09-01T00:39:21;19.10;95.40
13808;DHT22;40769;51.512;5.494;2022-09-01T00:41:47;19.20;95.60
13808;DHT22;40769;51.512;5.494;2022-09-01T00:44:18;19.10;95.80
13808;DHT22;40769;51.512;5.494;2022-09-01T00:46:49;19.30;96.00
13808;DHT22;40769;51.512;5.494;2022-09-01T00:49:35;19.10;96.10
13808;DHT22;40769;51.512;5.494;2022-09-01T00:52:15;19.10;96.50
13808;DHT22;40769;51.512;5.494;2022-09-01T00:54:44;19.10;96.70
13808;DHT22;40769;51.512;5.494;2022-09-01T00:57:11;19.00;96.50
13808;DHT22;40769;51.512;5.494;2022-09-01T01:00:14;19.00;96.70
13808;DHT22;40769;51.512;5.494;2022-09-01T01:02:39;18.90;97.30
13808;DHT22;40769;51.512;5.494;2022-09-01T01:05:05;18.90;97.00
13808;DHT22;40769;51.512;5.494;2022-09-01T01:07:32;18.90;97.20
13808;DHT22;40769;51.512;5.494;2022-09-01T01:10:05;18.90;97.30
13808;DHT22;40769;51.512;5.494;2022-09-01T01:12:31;18.90;97.20
13808;DHT22;40769;51.512;5.494;2022-09-01T01:14:58;18.90;97.50
13808;DHT22;40769;51.512;5.494;2022-09-01T01:17:24;18.90;97.50
13808;DHT22;40769;51.512;5.494;2022-09-01T01:19:52;18.60;97.60
13808;DHT22;40769;51.512;5.494;2022-09-01T01:22:44;18.80;98.00
13808;DHT22;40769;51.512;5.494;2022-09-01T01:25:39;18.80;98.20
13808;DHT22;40769;51.512;5.494;2022-09-01T01:28:09;18.70;98.40
13808;DHT22;40769;51.512;5.494;2022-09-01T01:30:37;18.70;98.40
13808;DHT22;40769;51.512;5.494;2022-09-01T01:33:04;18.70;98.60
13808;DHT22;40769;51.512;5.494;2022-09-01T01:35:31;18.70;98.60
13808;DHT22;40769;51.512;5.494;2022-09-01T01:37:59;18.70;98.70
13808;DHT22;40769;51.512;5.494;2022-09-01T01:40:28;18.60;98.90
13808;DHT22;40769;51.512;5.494;2022-09-01T01:42:54;18.60;99.10
13808;DHT22;40769;51.512;5.494;2022-09-01T01:45:22;18.50;99.20
13808;DHT22;40769;51.512;5.494;2022-09-01T01:47:51;18.60;99.40
13808;DHT22;40769;51.512;5.494;2022-09-01T01:50:25;18.50;99.50
13808;DHT22;40769;51.512;5.494;2022-09-01T01:52:52;18.70;99.90
13808;DHT22;40769;51.512;5.494;2022-09-01T01:55:19;18.50;99.70
13808;DHT22;40769;51.512;5.494;2022-09-01T01:57:46;18.60;99.80
13808;DHT22;40769;51.512;5.494;2022-09-01T02:00:18;18.60;99.90
13808;DHT22;40769;51.512;5.494;2022-09-01T02:02:46;18.70;99.90
13808;DHT22;40769;51.512;5.494;2022-09-01T02:05:31;18.50;99.90
13808;DHT22;40769;51.512;5.494;2022-09-01T02:08:01;18.50;99.90
13808;DHT22;40769;51.512;5.494;2022-09-01T02:10:32;18.50;99.90
13808;DHT22;40769;51.512;5.494;2022-09-01T02:13:00;18.50;99.90
13808;DHT22;40769;51.512;5.494;2022-09-01T02:15:34;18.50;99.90
13808;DHT22;40769;51.512;5.494;2022-09-01T02:18:02;18.40;99.90
13808;DHT22;40769;51.512;5.494;2022-09-01T02:20:28;18.40;99.90
13808;DHT22;40769;51.512;5.494;2022-09-01T02:22:58;18.40;99.90
13808;DHT22;40769;51.512;5.494;2022-09-01T02:25:34;18.30;99.90
13808;DHT22;40769;51.512;5.494;2022-09-01T02:28:00;18.40;99.90
13808;DHT22;40769;51.512;5.494;2022-09-01T02:30:29;18.30;99.90
13808;DHT22;40769;51.512;5.494;2022-09-01T02:32:58;18.30;99.90
13808;DHT22;40769;51.512;5.494;2022-09-01T02:35:25;18.30;99.90
13808;DHT22;40769;51.512;5.494;2022-09-01T02:37:56;18.20;99.90
13808;DHT22;40769;51.512;5.494;2022-09-01T02:40:26;18.20;99.90
13808;DHT22;40769;51.512;5.494;2022-09-01T02:42:56;18.20;99.90
13808;DHT22;40769;51.512;5.494;2022-09-01T02:45:23;18.20;99.90
13808;DHT22;40769;51.512;5.494;2022-09-01T02:47:49;18.20;99.90
13808;DHT22;40769;51.512;5.494;2022-09-01T02:50:16;18.10;99.90
13808;DHT22;40769;51.512;5.494;2022-09-01T02:52:46;18.10;99.90
13808;DHT22;40769;51.512;5.494;2022-09-01T02:55:17;18.00;99.90
13808;DHT22;40769;51.512;5.494;2022-09-01T02:57:50;18.00;99.90
13808;DHT22;40769;51.512;5.494;2022-09-01T03:00:20;18.00;99.90
13808;DHT22;40769;51.512;5.494;2022-09-01T03:02:51;18.00;99.90
13808;DHT22;40769;51.512;5.494;2022-09-01T03:05:18;17.90;99.90
13808;DHT22;40769;51.512;5.494;2022-09-01T03:07:50;17.90;99.90
13808;DHT22;40769;51.512;5.494;2022-09-01T03:10:19;17.90;99.90
13808;DHT22;40769;51.512;5.494;2022-09-01T03:12:46;17.80;99.90
13808;DHT22;40769;51.512;5.494;2022-09-01T03:15:11;17.80;99.90
13808;DHT22;40769;51.512;5.494;2022-09-01T03:17:37;18.00;99.90
13808;DHT22;40769;51.512;5.494;2022-09-01T03:20:03;17.80;99.90
13808;DHT22;40769;51.512;5.494;2022-09-01T03:22:31;17.80;99.90
13808;DHT22;40769;51.512;5.494;2022-09-01T03:24:58;17.70;99.90
13808;DHT22;40769;51.512;5.494;2022-09-01T03:27:23;17.70;99.90
13808;DHT22;40769;51.512;5.494;2022-09-01T03:29:49;17.70;99.90
13808;DHT22;40769;51.512;5.494;2022-09-01T03:32:15;17.60;99.90
13808;DHT22;40769;51.512;5.494;2022-09-01T03:34:40;17.70;99.90
13808;DHT22;40769;51.512;5.494;2022-09-01T03:37:06;17.90;99.90
13808;DHT22;40769;51.512;5.494;2022-09-01T03:39:32;17.60;99.90
13808;DHT22;40769;51.512;5.494;2022-09-01T03:41:59;17.60;99.90
13808;DHT22;40769;51.512;5.494;2022-09-01T03:44:25;17.60;99.90
13808;DHT22;40769;51.512;5.494;2022-09-01T03:46:51;17.60;99.90
13808;DHT22;40769;51.512;5.494;2022-09-01T03:49:17;17.60;99.90
13808;DHT22;40769;51.512;5.494;2022-09-01T03:51:49;17.60;99.90
13808;DHT22;40769;51.512;5.494;2022-09-01T03:54:17;17.60;99.90
13808;DHT22;40769;51.512;5.494;2022-09-01T03:56:43;17.60;99.90
13808;DHT22;40769;51.512;5.494;2022-09-01T03:59:09;17.60;99.90
13808;DHT22;40769;51.512;5.494;2022-09-01T04:01:41;17.60;99.90
13808;DHT22;40769;51.512;5.494;2022-09-01T04:04:11;17.60;99.90
13808;DHT22;40769;51.512;5.494;2022-09-01T04:06:41;17.60;99.90
13808;DHT22;40769;51.512;5.494;2022-09-01T04:09:07;17.80;99.90
13808;DHT22;40769;51.512;5.494;2022-09-01T04:11:32;17.70;99.90
13808;DHT22;40769;51.512;5.494;2022-09-01T04:13:59;17.70;99.90
13808;DHT22;40769;51.512;5.494;2022-09-01T04:16:30;17.70;99.90
13808;DHT22;40769;51.512;5.494;2022-09-01T04:19:16;17.70;99.90
13808;DHT22;40769;51.512;5.494;2022-09-01T04:21:50;17.70;99.90
13808;DHT22;40769;51.512;5.494;2022-09-01T04:24:17;17.70;99.90
13808;DHT22;40769;51.512;5.494;2022-09-01T04:26:44;17.80;99.90
13808;DHT22;40769;51.512;5.494;2022-09-01T04:29:11;17.70;99.90
13808;DHT22;40769;51.512;5.494;2022-09-01T04:31:37;17.60;99.90
13808;DHT22;40769;51.512;5.494;2022-09-01T04:34:05;17.60;99.90
13808;DHT22;40769;51.512;5.494;2022-09-01T04:36:41;17.60;99.90
13808;DHT22;40769;51.512;5.494;2022-09-01T04:39:09;17.90;99.90
13808;DHT22;40769;51.512;5.494;2022-09-01T04:41:41;17.50;99.90
13808;DHT22;40769;51.512;5.494;2022-09-01T04:44:07;17.50;99.90
13808;DHT22;40769;51.512;5.494;2022-09-01T04:46:36;17.10;99.90
13808;DHT22;40769;51.512;5.494;2022-09-01T04:49:04;17.40;99.90
13808;DHT22;40769;51.512;5.494;2022-09-01T04:51:41;17.40;99.90
13808;DHT22;40769;51.512;5.494;2022-09-01T04:54:07;17.30;99.90
13808;DHT22;40769;51.512;5.494;2022-09-01T04:56:43;17.40;99.90
13808;DHT22;40769;51.512;5.494;2022-09-01T04:59:09;17.30;99.90
13808;DHT22;40769;51.512;5.494;2022-09-01T05:01:37;17.40;99.90
13808;DHT22;40769;51.512;5.494;2022-09-01T05:04:15;17.40;99.90
13808;DHT22;40769;51.512;5.494;2022-09-01T05:06:47;17.70;99.90
13808;DHT22;40769;51.512;5.494;2022-09-01T05:09:20;17.40;99.90
13808;DHT22;40769;51.512;5.494;2022-09-01T05:11:46;17.40;99.90
13808;DHT22;40769;51.512;5.494;2022-09-01T05:14:13;17.40;99.90
13808;DHT22;40769;51.512;5.494;2022-09-01T05:16:42;17.40;99.90
13808;DHT22;40769;51.512;5.494;2022-09-01T05:19:09;17.40;99.90
13808;DHT22;40769;51.512;5.494;2022-09-01T05:21:43;17.40;99.90
13808;DHT22;40769;51.512;5.494;2022-09-01T05:24:17;17.30;99.90
13808;DHT22;40769;51.512;5.494;2022-09-01T05:26:43;17.30;99.90
13808;DHT22;40769;51.512;5.494;2022-09-01T05:29:12;17.40;99.90
13808;DHT22;40769;51.512;5.494;2022-09-01T05:31:43;17.40;99.90
13808;DHT22;40769;51.512;5.494;2022-09-01T05:34:09;17.30;99.90
13808;DHT22;40769;51.512;5.494;2022-09-01T05:36:37;17.30;99.90
13808;DHT22;40769;51.512;5.494;2022-09-01T05:39:05;17.60;99.90
13808;DHT22;40769;51.512;5.494;2022-09-01T05:41:31;17.40;99.90
13808;DHT22;40769;51.512;5.494;2022-09-01T05:43:58;17.40;99.90
13808;DHT22;40769;51.512;5.494;2022-09-01T05:46:26;17.50;99.90
13808;DHT22;40769;51.512;5.494;2022-09-01T05:48:53;17.40;99.90
13808;DHT22;40769;51.512;5.494;2022-09-01T05:51:22;17.40;99.90
13808;DHT22;40769;51.512;5.494;2022-09-01T05:53:51;17.40;99.90
13808;DHT22;40769;51.512;5.494;2022-09-01T05:56:19;17.50;99.90
13808;DHT22;40769;51.512;5.494;2022-09-01T05:58:45;17.50;99.90
13808;DHT22;40769;51.512;5.494;2022-09-01T06:01:17;17.50;99.90
13808;DHT22;40769;51.512;5.494;2022-09-01T06:03:47;17.50;99.90
13808;DHT22;40769;51.512;5.494;2022-09-01T06:06:13;17.50;99.90
13808;DHT22;40769;51.512;5.494;2022-09-01T06:08:39;17.60;99.90
13808;DHT22;40769;51.512;5.494;2022-09-01T06:11:07;17.50;99.90
13808;DHT22;40769;51.512;5.494;2022-09-01T06:13:37;17.60;99.90
13808;DHT22;40769;51.512;5.494;2022-09-01T06:16:04;17.60;99.90
13808;DHT22;40769;51.512;5.494;2022-09-01T06:18:31;17.60;99.90
13808;DHT22;40769;51.512;5.494;2022-09-01T06:20:58;17.70;99.90
13808;DHT22;40769;51.512;5.494;2022-09-01T06:23:24;17.80;99.90
13808;DHT22;40769;51.512;5.494;2022-09-01T06:25:49;17.70;99.90
13808;DHT22;40769;51.512;5.494;2022-09-01T06:28:17;17.80;99.90
13808;DHT22;40769;51.512;5.494;2022-09-01T06:30:43;17.80;99.90
13808;DHT22;40769;51.512;5.494;2022-09-01T06:33:11;17.90;99.90
13808;DHT22;40769;51.512;5.494;2022-09-01T06:35:39;17.90;99.90
13808;DHT22;40769;51.512;5.494;2022-09-01T06:38:10;18.00;99.90
13808;DHT22;40769;51.512;5.494;2022-09-01T06:40:37;18.00;99.90
13808;DHT22;40769;51.512;5.494;2022-09-01T06:43:05;18.10;99.90
13808;DHT22;40769;51.512;5.494;2022-09-01T06:45:43;18.10;99.90
13808;DHT22;40769;51.512;5.494;2022-09-01T06:48:13;18.20;99.90
13808;DHT22;40769;51.512;5.494;2022-09-01T06:50:42;18.40;99.90
13808;DHT22;40769;51.512;5.494;2022-09-01T06:53:08;18.50;99.90
13808;DHT22;40769;51.512;5.494;2022-09-01T06:55:41;18.80;99.90
13808;DHT22;40769;51.512;5.494;2022-09-01T06:58:09;19.10;99.90
13808;DHT22;40769;51.512;5.494;2022-09-01T07:00:38;19.40;99.90
13808;DHT22;40769;51.512;5.494;2022-09-01T07:03:08;19.70;99.90
13808;DHT22;40769;51.512;5.494;2022-09-01T07:05:45;20.10;99.90
13808;DHT22;40769;51.512;5.494;2022-09-01T07:08:14;20.40;99.90
13808;DHT22;40769;51.512;5.494;2022-09-01T07:10:46;20.80;99.90
13808;DHT22;40769;51.512;5.494;2022-09-01T07:13:17;21.10;99.90
13808;DHT22;40769;51.512;5.494;2022-09-01T07:15:48;21.40;99.90
13808;DHT22;40769;51.512;5.494;2022-09-01T07:18:18;21.70;99.90
13808;DHT22;40769;51.512;5.494;2022-09-01T07:20:45;22.00;99.90
13808;DHT22;40769;51.512;5.494;2022-09-01T07:23:14;22.20;99.90
13808;DHT22;40769;51.512;5.494;2022-09-01T07:25:42;22.40;99.90
13808;DHT22;40769;51.512;5.494;2022-09-01T07:28:10;22.60;99.90
13808;DHT22;40769;51.512;5.494;2022-09-01T07:30:48;22.80;99.90
13808;DHT22;40769;51.512;5.494;2022-09-01T07:33:16;23.00;99.90
13808;DHT22;40769;51.512;5.494;2022-09-01T07:35:45;23.10;99.90
13808;DHT22;40769;51.512;5.494;2022-09-01T07:38:10;23.30;99.90
13808;DHT22;40769;51.512;5.494;2022-09-01T07:40:39;23.50;99.90
13808;DHT22;40769;51.512;5.494;2022-09-01T07:43:07;23.70;99.90
13808;DHT22;40769;51.512;5.494;2022-09-01T07:45:37;23.90;99.90
13808;DHT22;40769;51.512;5.494;2022-09-01T07:48:07;24.10;99.90
13808;DHT22;40769;51.512;5.494;2022-09-01T07:50:41;24.20;99.90
13808;DHT22;40769;51.512;5.494;2022-09-01T07:53:16;24.50;99.90
13808;DHT22;40769;51.512;5.494;2022-09-01T07:55:43;24.70;99.90
13808;DHT22;40769;51.512;5.494;2022-09-01T07:58:10;24.90;99.90
13808;DHT22;40769;51.512;5.494;2022-09-01T08:00:37;25.10;99.90
13808;DHT22;40769;51.512;5.494;2022-09-01T08:03:02;25.30;99.90
13808;DHT22;40769;51.512;5.494;2022-09-01T08:05:28;25.50;99.90
13808;DHT22;40769;51.512;5.494;2022-09-01T08:07:54;25.80;99.90
13808;DHT22;40769;51.512;5.494;2022-09-01T08:10:19;26.00;99.90
13808;DHT22;40769;51.512;5.494;2022-09-01T08:12:45;26.20;99.90
13808;DHT22;40769;51.512;5.494;2022-09-01T08:15:11;26.40;99.90
13808;DHT22;40769;51.512;5.494;2022-09-01T08:17:37;26.40;99.90
13808;DHT22;40769;51.512;5.494;2022-09-01T08:20:04;26.80;99.90
13808;DHT22;40769;51.512;5.494;2022-09-01T08:22:33;27.00;99.90
13808;DHT22;40769;51.512;5.494;2022-09-01T08:24:58;27.20;99.90
13808;DHT22;40769;51.512;5.494;2022-09-01T08:27:24;27.30;99.80
13808;DHT22;40769;51.512;5.494;2022-09-01T08:29:49;27.40;99.70
13808;DHT22;40769;51.512;5.494;2022-09-01T08:32:15;27.50;99.30
13808;DHT22;40769;51.512;5.494;2022-09-01T08:34:41;27.70;99.10
13808;DHT22;40769;51.512;5.494;2022-09-01T08:37:07;27.80;98.40
13808;DHT22;40769;51.512;5.494;2022-09-01T08:39:33;28.00;98.00
13808;DHT22;40769;51.512;5.494;2022-09-01T08:42:08;28.10;97.60
13808;DHT22;40769;51.512;5.494;2022-09-01T08:44:50;28.30;96.80
13808;DHT22;40769;51.512;5.494;2022-09-01T08:47:19;28.20;97.20
13808;DHT22;40769;51.512;5.494;2022-09-01T08:49:46;28.50;97.00
13808;DHT22;40769;51.512;5.494;2022-09-01T08:52:44;28.70;96.50
13808;DHT22;40769;51.512;5.494;2022-09-01T08:55:39;28.90;95.30
13808;DHT22;40769;51.512;5.494;2022-09-01T08:58:07;29.00;95.40
13808;DHT22;40769;51.512;5.494;2022-09-01T09:00:40;29.10;95.50
13808;DHT22;40769;51.512;5.494;2022-09-01T09:16:49;29.90;92.10
13808;DHT22;40769;51.512;5.494;2022-09-01T09:21:51;30.10;92.00
13808;DHT22;40769;51.512;5.494;2022-09-01T09:24:33;30.20;92.10
13808;DHT22;40769;51.512;5.494;2022-09-01T09:27:34;30.30;91.10
13808;DHT22;40769;51.512;5.494;2022-09-01T09:35:27;30.60;89.50
13808;DHT22;40769;51.512;5.494;2022-09-01T09:37:55;30.70;88.60
13808;DHT22;40769;51.512;5.494;2022-09-01T09:40:25;30.80;89.80
13808;DHT22;40769;51.512;5.494;2022-09-01T09:45:27;30.90;87.30
13808;DHT22;40769;51.512;5.494;2022-09-01T09:47:54;31.00;86.00
13808;DHT22;40769;51.512;5.494;2022-09-01T09:50:29;31.10;86.40
13808;DHT22;40769;51.512;5.494;2022-09-01T09:53:15;31.20;84.80
13808;DHT22;40769;51.512;5.494;2022-09-01T09:56:21;31.30;84.50
13808;DHT22;40769;51.512;5.494;2022-09-01T09:58:49;31.40;84.00
13808;DHT22;40769;51.512;5.494;2022-09-01T10:03:50;31.50;81.20
13808;DHT22;40769;51.512;5.494;2022-09-01T10:06:39;31.60;81.70
13808;DHT22;40769;51.512;5.494;2022-09-01T10:09:34;31.60;78.20
13808;DHT22;40769;51.512;5.494;2022-09-01T10:12:02;31.80;78.20
13808;DHT22;40769;51.512;5.494;2022-09-01T10:14:34;31.60;79.50
13808;DHT22;40769;51.512;5.494;2022-09-01T10:17:07;31.70;78.30
13808;DHT22;40769;51.512;5.494;2022-09-01T10:19:34;31.80;76.50
13808;DHT22;40769;51.512;5.494;2022-09-01T10:22:00;31.80;76.40
13808;DHT22;40769;51.512;5.494;2022-09-01T10:24:35;31.80;75.00
13808;DHT22;40769;51.512;5.494;2022-09-01T10:27:07;31.90;72.80
13808;DHT22;40769;51.512;5.494;2022-09-01T10:29:55;31.90;72.30
13808;DHT22;40769;51.512;5.494;2022-09-01T10:32:26;32.00;71.30
13808;DHT22;40769;51.512;5.494;2022-09-01T10:34:54;31.80;70.60
13808;DHT22;40769;51.512;5.494;2022-09-01T10:37:20;31.90;71.10
13808;DHT22;40769;51.512;5.494;2022-09-01T10:40:13;31.80;70.40
13808;DHT22;40769;51.512;5.494;2022-09-01T10:42:41;31.90;69.10
13808;DHT22;40769;51.512;5.494;2022-09-01T10:47:47;31.90;69.20
13808;DHT22;40769;51.512;5.494;2022-09-01T10:50:31;31.80;70.20
13808;DHT22;40769;51.512;5.494;2022-09-01T10:53:03;32.00;67.80
13808;DHT22;40769;51.512;5.494;2022-09-01T10:55:38;31.90;67.30
13808;DHT22;40769;51.512;5.494;2022-09-01T10:58:14;31.90;67.80
13808;DHT22;40769;51.512;5.494;2022-09-01T11:00:46;31.90;67.80
13808;DHT22;40769;51.512;5.494;2022-09-01T11:03:34;32.00;67.90
13808;DHT22;40769;51.512;5.494;2022-09-01T11:11:07;32.00;67.00
13808;DHT22;40769;51.512;5.494;2022-09-01T11:16:35;32.00;66.50
13808;DHT22;40769;51.512;5.494;2022-09-01T11:19:23;32.10;65.90
13808;DHT22;40769;51.512;5.494;2022-09-01T11:22:13;32.00;65.10
13808;DHT22;40769;51.512;5.494;2022-09-01T11:27:08;31.80;65.00
13808;DHT22;40769;51.512;5.494;2022-09-01T11:29:53;31.70;65.70
13808;DHT22;40769;51.512;5.494;2022-09-01T11:32:24;31.60;64.90
13808;DHT22;40769;51.512;5.494;2022-09-01T11:34:51;31.60;64.20
13808;DHT22;40769;51.512;5.494;2022-09-01T11:37:23;31.60;64.80
13808;DHT22;40769;51.512;5.494;2022-09-01T11:39:54;31.60;64.70
13808;DHT22;40769;51.512;5.494;2022-09-01T11:42:32;31.60;64.50
13808;DHT22;40769;51.512;5.494;2022-09-01T11:45:16;31.60;62.40
13808;DHT22;40769;51.512;5.494;2022-09-01T11:47:46;31.70;62.00
13808;DHT22;40769;51.512;5.494;2022-09-01T11:53:09;32.00;62.10
13808;DHT22;40769;51.512;5.494;2022-09-01T11:58:11;32.10;61.30
13808;DHT22;40769;51.512;5.494;2022-09-01T12:00:39;32.10;61.00
13808;DHT22;40769;51.512;5.494;2022-09-01T12:03:27;32.30;61.50
13808;DHT22;40769;51.512;5.494;2022-09-01T12:06:02;32.30;59.60
13808;DHT22;40769;51.512;5.494;2022-09-01T12:08:33;32.40;60.20
13808;DHT22;40769;51.512;5.494;2022-09-01T12:11:07;32.50;59.80
13808;DHT22;40769;51.512;5.494;2022-09-01T12:13:34;32.50;59.10
13808;DHT22;40769;51.512;5.494;2022-09-01T12:16:03;32.60;59.60
13808;DHT22;40769;51.512;5.494;2022-09-01T12:18:32;32.60;59.50
13808;DHT22;40769;51.512;5.494;2022-09-01T12:21:01;32.70;59.00
13808;DHT22;40769;51.512;5.494;2022-09-01T12:23:32;32.80;59.10
13808;DHT22;40769;51.512;5.494;2022-09-01T12:26:01;32.80;57.60
13808;DHT22;40769;51.512;5.494;2022-09-01T12:28:30;32.90;57.40
13808;DHT22;40769;51.512;5.494;2022-09-01T12:31:02;33.00;57.30
13808;DHT22;40769;51.512;5.494;2022-09-01T12:33:28;33.00;57.30
13808;DHT22;40769;51.512;5.494;2022-09-01T12:36:21;33.00;55.50
13808;DHT22;40769;51.512;5.494;2022-09-01T12:38:49;33.00;54.30
13808;DHT22;40769;51.512;5.494;2022-09-01T12:41:34;33.00;55.20
13808;DHT22;40769;51.512;5.494;2022-09-01T12:47:05;32.90;55.60
13808;DHT22;40769;51.512;5.494;2022-09-01T12:49:43;33.00;55.30
13808;DHT22;40769;51.512;5.494;2022-09-01T12:57:32;33.10;54.60
13808;DHT22;40769;51.512;5.494;2022-09-01T13:07:44;33.30;53.50
13808;DHT22;40769;51.512;5.494;2022-09-01T13:10:09;33.30;54.40
13808;DHT22;40769;51.512;5.494;2022-09-01T13:12:40;33.30;53.70
13808;DHT22;40769;51.512;5.494;2022-09-01T13:15:07;33.30;53.30
13808;DHT22;40769;51.512;5.494;2022-09-01T13:17:32;33.40;53.10
13808;DHT22;40769;51.512;5.494;2022-09-01T13:19:58;33.40;52.40
13808;DHT22;40769;51.512;5.494;2022-09-01T13:22:23;33.40;52.40
13808;DHT22;40769;51.512;5.494;2022-09-01T13:24:49;33.40;53.20
13808;DHT22;40769;51.512;5.494;2022-09-01T13:27:15;33.50;53.50
13808;DHT22;40769;51.512;5.494;2022-09-01T13:29:40;33.50;53.50
13808;DHT22;40769;51.512;5.494;2022-09-01T13:32:06;33.60;53.50
13808;DHT22;40769;51.512;5.494;2022-09-01T13:34:33;33.70;53.20
13808;DHT22;40769;51.512;5.494;2022-09-01T13:36:59;33.70;53.20
13808;DHT22;40769;51.512;5.494;2022-09-01T13:39:25;33.80;52.30
13808;DHT22;40769;51.512;5.494;2022-09-01T13:41:51;33.80;52.00
13808;DHT22;40769;51.512;5.494;2022-09-01T13:44:17;33.80;51.90
13808;DHT22;40769;51.512;5.494;2022-09-01T13:46:43;33.80;52.10
13808;DHT22;40769;51.512;5.494;2022-09-01T13:49:09;33.80;52.40
13808;DHT22;40769;51.512;5.494;2022-09-01T13:51:35;33.80;52.20
13808;DHT22;40769;51.512;5.494;2022-09-01T13:54:02;33.80;51.90
13808;DHT22;40769;51.512;5.494;2022-09-01T13:56:27;33.90;51.50
13808;DHT22;40769;51.512;5.494;2022-09-01T13:58:53;33.80;51.20
13808;DHT22;40769;51.512;5.494;2022-09-01T14:01:19;33.80;50.50
13808;DHT22;40769;51.512;5.494;2022-09-01T14:03:45;33.80;50.40
13808;DHT22;40769;51.512;5.494;2022-09-01T14:06:12;33.70;51.00
13808;DHT22;40769;51.512;5.494;2022-09-01T14:08:38;33.80;51.20
13808;DHT22;40769;51.512;5.494;2022-09-01T14:11:04;33.70;51.70
13808;DHT22;40769;51.512;5.494;2022-09-01T14:13:30;33.70;51.50
13808;DHT22;40769;51.512;5.494;2022-09-01T14:15:57;33.70;51.30
13808;DHT22;40769;51.512;5.494;2022-09-01T14:18:23;33.70;51.30
13808;DHT22;40769;51.512;5.494;2022-09-01T14:21:01;33.70;50.40
13808;DHT22;40769;51.512;5.494;2022-09-01T14:23:27;33.70;51.20
13808;DHT22;40769;51.512;5.494;2022-09-01T14:25:53;33.70;50.30
13808;DHT22;40769;51.512;5.494;2022-09-01T14:28:20;33.80;50.60
13808;DHT22;40769;51.512;5.494;2022-09-01T14:30:46;33.90;50.30
13808;DHT22;40769;51.512;5.494;2022-09-01T14:33:13;33.90;51.00
13808;DHT22;40769;51.512;5.494;2022-09-01T14:35:41;33.90;50.70
13808;DHT22;40769;51.512;5.494;2022-09-01T14:38:08;33.90;51.30
13808;DHT22;40769;51.512;5.494;2022-09-01T14:40:38;34.00;50.30
13808;DHT22;40769;51.512;5.494;2022-09-01T14:43:06;34.00;49.60
13808;DHT22;40769;51.512;5.494;2022-09-01T14:45:34;34.00;50.60
13808;DHT22;40769;51.512;5.494;2022-09-01T14:48:02;34.00;49.90
13808;DHT22;40769;51.512;5.494;2022-09-01T14:50:29;34.00;49.40
13808;DHT22;40769;51.512;5.494;2022-09-01T14:52:57;34.00;49.90
13808;DHT22;40769;51.512;5.494;2022-09-01T14:55:26;34.00;49.70
13808;DHT22;40769;51.512;5.494;2022-09-01T14:57:52;33.90;50.10
13808;DHT22;40769;51.512;5.494;2022-09-01T15:00:20;34.00;50.10
13808;DHT22;40769;51.512;5.494;2022-09-01T15:02:47;33.90;50.20
13808;DHT22;40769;51.512;5.494;2022-09-01T15:05:13;33.90;50.30
13808;DHT22;40769;51.512;5.494;2022-09-01T15:07:40;34.00;50.30
13808;DHT22;40769;51.512;5.494;2022-09-01T15:10:07;34.00;50.00
13808;DHT22;40769;51.512;5.494;2022-09-01T15:12:34;34.00;50.00
13808;DHT22;40769;51.512;5.494;2022-09-01T15:15:00;34.10;49.70
13808;DHT22;40769;51.512;5.494;2022-09-01T15:17:26;34.10;49.60
13808;DHT22;40769;51.512;5.494;2022-09-01T15:19:52;34.20;49.00
13808;DHT22;40769;51.512;5.494;2022-09-01T15:22:18;34.30;48.70
13808;DHT22;40769;51.512;5.494;2022-09-01T15:24:44;34.30;48.90
13808;DHT22;40769;51.512;5.494;2022-09-01T15:27:10;34.30;48.40
13808;DHT22;40769;51.512;5.494;2022-09-01T15:29:36;34.20;48.50
13808;DHT22;40769;51.512;5.494;2022-09-01T15:32:10;34.10;49.00
13808;DHT22;40769;51.512;5.494;2022-09-01T15:34:37;34.10;48.60
13808;DHT22;40769;51.512;5.494;2022-09-01T15:37:03;34.00;49.20
13808;DHT22;40769;51.512;5.494;2022-09-01T15:39:29;33.90;49.80
13808;DHT22;40769;51.512;5.494;2022-09-01T15:41:54;33.90;49.20
13808;DHT22;40769;51.512;5.494;2022-09-01T15:44:21;33.90;49.00
13808;DHT22;40769;51.512;5.494;2022-09-01T15:46:46;33.90;50.40
13808;DHT22;40769;51.512;5.494;2022-09-01T15:49:12;33.80;49.70
13808;DHT22;40769;51.512;5.494;2022-09-01T15:51:40;33.80;49.30
13808;DHT22;40769;51.512;5.494;2022-09-01T15:54:08;33.80;49.60
13808;DHT22;40769;51.512;5.494;2022-09-01T15:56:35;33.80;50.10
13808;DHT22;40769;51.512;5.494;2022-09-01T15:59:01;33.80;50.30
13808;DHT22;40769;51.512;5.494;2022-09-01T16:01:29;33.80;50.00
13808;DHT22;40769;51.512;5.494;2022-09-01T16:03:56;33.80;50.30
13808;DHT22;40769;51.512;5.494;2022-09-01T16:06:22;33.80;50.20
13808;DHT22;40769;51.512;5.494;2022-09-01T16:08:48;33.80;50.00
13808;DHT22;40769;51.512;5.494;2022-09-01T16:11:14;33.80;49.80
13808;DHT22;40769;51.512;5.494;2022-09-01T16:13:41;33.90;50.50
13808;DHT22;40769;51.512;5.494;2022-09-01T16:19:29;33.70;50.50
13808;DHT22;40769;51.512;5.494;2022-09-01T16:24:51;33.90;50.00
13808;DHT22;40769;51.512;5.494;2022-09-01T16:27:21;33.90;50.60
13808;DHT22;40769;51.512;5.494;2022-09-01T16:29:50;33.90;50.40
13808;DHT22;40769;51.512;5.494;2022-09-01T16:32:16;33.90;50.50
13808;DHT22;40769;51.512;5.494;2022-09-01T16:34:46;33.90;50.60
13808;DHT22;40769;51.512;5.494;2022-09-01T16:40:48;33.70;50.80
13808;DHT22;40769;51.512;5.494;2022-09-01T16:43:29;33.60;51.30
13808;DHT22;40769;51.512;5.494;2022-09-01T16:46:05;33.50;51.70
13808;DHT22;40769;51.512;5.494;2022-09-01T16:48:57;33.40;51.80
13808;DHT22;40769;51.512;5.494;2022-09-01T16:54:30;33.10;52.10
13808;DHT22;40769;51.512;5.494;2022-09-01T16:59:33;33.00;52.50
13808;DHT22;40769;51.512;5.494;2022-09-01T17:04:47;32.60;52.80